Time;durP1;ratioP1;P1;durP2;ratioP2;P2;SDS_P1;SDS_P2;PMS_P1;PMS_P2;Temp;Humidity;BMP_temperature;BMP_pressure;BME280_temperature;BME280_humidity;BME280_pressure;Samples;Min_cycle;Max_cycle;Signal;HPM_P1;HPM_P2
2021/05/28 00:01:42;;;;;;;19.00;10.40;;;10.30;70.60;;;;;;4998285;28;20404;-71
2021/05/28 00:04:08;;;;;;;18.40;10.70;;;10.40;70.40;;;;;;4993153;28;20401;-72
2021/05/28 00:06:33;;;;;;;18.27;9.73;;;10.40;71.00;;;;;;5010753;28;20400;-72
2021/05/28 00:08:59;;;;;;;18.73;10.70;;;10.40;71.20;;;;;;4992826;28;20467;-72
2021/05/28 00:11:25;;;;;;;19.93;10.00;;;10.40;71.00;;;;;;5010753;28;20401;-71
2021/05/28 00:13:50;;;;;;;17.63;10.00;;;10.60;70.00;;;;;;5010537;28;20388;-72
2021/05/28 00:16:16;;;;;;;16.33;9.20;;;10.70;68.40;;;;;;5010887;28;20959;-71
2021/05/28 00:18:41;;;;;;;25.37;10.70;;;10.80;67.30;;;;;;5010802;28;20372;-73
2021/05/28 00:21:07;;;;;;;17.83;10.00;;;10.80;68.20;;;;;;5010809;28;20415;-71
2021/05/28 00:23:33;;;;;;;19.00;9.40;;;10.90;66.40;;;;;;5010078;28;20385;-71
2021/05/28 00:25:58;;;;;;;16.88;9.82;;;10.90;65.50;;;;;;5010389;28;20408;-73
2021/05/28 00:28:24;;;;;;;18.52;9.55;;;10.90;65.40;;;;;;5011049;28;20472;-72
2021/05/28 00:30:50;;;;;;;20.40;9.40;;;10.90;65.50;;;;;;5010830;28;20580;-70
2021/05/28 00:33:15;;;;;;;17.87;9.50;;;11.00;65.40;;;;;;5010508;28;20405;-72
2021/05/28 00:35:41;;;;;;;23.00;9.67;;;11.00;65.10;;;;;;5010468;28;20762;-71
2021/05/28 00:38:07;;;;;;;19.20;10.20;;;10.90;65.50;;;;;;5010736;28;20396;-71
2021/05/28 00:40:32;;;;;;;21.60;10.70;;;10.70;66.50;;;;;;5010602;28;20381;-74
2021/05/28 00:42:58;;;;;;;24.97;10.33;;;10.40;68.70;;;;;;5010625;28;20428;-73
2021/05/28 00:45:24;;;;;;;21.03;11.20;;;10.20;70.90;;;;;;5010896;28;20405;-73
2021/05/28 00:47:50;;;;;;;21.60;11.35;;;10.10;71.90;;;;;;5013856;28;20631;-72
2021/05/28 00:50:15;;;;;;;17.38;10.63;;;10.20;73.20;;;;;;5016695;28;20448;-72
2021/05/28 00:52:41;;;;;;;19.93;10.80;;;10.20;71.60;;;;;;4993299;28;20397;-72
2021/05/28 00:55:07;;;;;;;17.65;10.40;;;10.10;72.40;;;;;;5010554;28;20432;-71
2021/05/28 00:57:34;;;;;;;18.80;10.30;;;10.30;72.10;;;;;;5011390;28;20475;-73
2021/05/28 01:00:02;;;;;;;20.00;10.48;;;10.40;71.20;;;;;;5011355;28;20853;-73
2021/05/28 01:02:27;;;;;;;16.63;9.95;;;10.40;71.00;;;;;;5014760;28;20399;-72
2021/05/28 01:04:53;;;;;;;14.50;10.38;;;10.40;69.30;;;;;;5014130;28;20392;-72
2021/05/28 01:07:20;;;;;;;22.55;11.10;;;9.90;70.00;;;;;;5013395;28;20397;-72
2021/05/28 01:09:46;;;;;;;19.93;11.47;;;9.60;71.80;;;;;;5014048;28;20393;-71
2021/05/28 01:12:12;;;;;;;26.30;12.38;;;9.40;73.20;;;;;;4996683;28;20451;-72
2021/05/28 01:14:37;;;;;;;24.47;12.80;;;9.20;74.60;;;;;;5016419;28;20380;-71
2021/05/28 01:17:03;;;;;;;21.57;12.53;;;9.00;75.80;;;;;;5014538;28;20395;-73
2021/05/28 01:19:29;;;;;;;24.70;12.63;;;8.80;77.00;;;;;;5013962;28;20726;-72
2021/05/28 01:22:02;;;;;;;21.98;12.30;;;9.00;78.50;;;;;;5013888;28;20389;-72
2021/05/28 01:24:27;;;;;;;18.20;11.65;;;9.40;78.80;;;;;;5013835;28;20432;-71
2021/05/28 01:26:53;;;;;;;20.50;11.52;;;9.60;77.00;;;;;;4996459;28;20408;-71
2021/05/28 01:29:18;;;;;;;18.65;11.57;;;9.60;75.70;;;;;;5014101;28;20408;-72
2021/05/28 01:31:44;;;;;;;17.33;11.27;;;9.70;75.00;;;;;;5013868;28;20427;-73
2021/05/28 01:34:09;;;;;;;19.13;11.63;;;9.60;74.50;;;;;;5013377;28;20885;-71
2021/05/28 01:36:35;;;;;;;19.10;11.93;;;9.60;74.70;;;;;;5014043;28;20388;-73
2021/05/28 01:39:01;;;;;;;24.60;12.17;;;9.50;74.90;;;;;;5014366;28;20404;-71
2021/05/28 01:41:30;;;;;;;24.77;12.93;;;9.30;75.50;;;;;;5016683;28;20396;-72
2021/05/28 01:43:55;;;;;;;20.27;11.63;;;9.40;77.10;;;;;;5012835;28;20408;-70
2021/05/28 01:46:21;;;;;;;25.50;12.23;;;9.40;76.30;;;;;;5018828;23;20426;-79
2021/05/28 01:48:47;;;;;;;21.50;12.00;;;9.40;76.10;;;;;;5011663;28;20395;-80
2021/05/28 01:51:12;;;;;;;22.20;13.17;;;9.30;76.20;;;;;;5013108;28;20456;-81
2021/05/28 01:53:38;;;;;;;22.60;13.07;;;9.30;76.80;;;;;;5008918;28;20394;-81
2021/05/28 01:56:04;;;;;;;20.73;12.40;;;9.30;77.00;;;;;;5027834;28;20441;-78
2021/05/28 01:58:29;;;;;;;24.80;12.97;;;9.10;77.30;;;;;;5048071;28;20399;-79
2021/05/28 02:00:56;;;;;;;18.20;12.50;;;9.20;78.20;;;;;;5049296;28;20391;-81
2021/05/28 02:03:22;;;;;;;20.05;12.50;;;9.20;77.80;;;;;;5050144;28;20775;-80
2021/05/28 02:05:48;;;;;;;28.48;13.20;;;9.20;77.50;;;;;;5051977;28;20501;-79
2021/05/28 02:08:14;;;;;;;21.50;13.13;;;9.10;77.70;;;;;;5036955;28;20392;-80
2021/05/28 02:10:40;;;;;;;20.73;13.13;;;9.00;78.40;;;;;;5035947;28;20732;-80
2021/05/28 02:13:05;;;;;;;25.75;13.95;;;9.10;78.60;;;;;;5052907;28;20391;-80
2021/05/28 02:15:31;;;;;;;20.83;14.20;;;8.80;78.50;;;;;;5035229;28;20387;-79
2021/05/28 02:17:57;;;;;;;23.52;14.18;;;8.50;79.10;;;;;;5034233;28;20447;-81
2021/05/28 02:20:23;;;;;;;30.73;14.93;;;8.30;80.10;;;;;;5048447;28;20451;-79
2021/05/28 02:22:49;;;;;;;26.35;15.02;;;8.20;80.90;;;;;;5034069;28;20383;-80
2021/05/28 02:25:15;;;;;;;23.92;14.85;;;8.20;81.70;;;;;;5023125;28;20408;-80
2021/05/28 02:27:42;;;;;;;28.52;14.57;;;8.20;82.30;;;;;;5028154;28;20469;-81
2021/05/28 02:30:09;;;;;;;24.20;13.80;;;8.40;82.70;;;;;;5011055;28;20384;-80
2021/05/28 02:32:35;;;;;;;20.70;13.75;;;8.60;82.40;;;;;;5011522;28;20768;-80
2021/05/28 02:35:01;;;;;;;25.17;14.83;;;8.60;81.70;;;;;;5030191;28;20407;-78
2021/05/28 02:37:26;;;;;;;23.15;13.38;;;8.70;80.90;;;;;;5031121;28;20393;-80
2021/05/28 02:39:52;;;;;;;25.20;14.57;;;8.70;80.90;;;;;;5012880;28;20403;-80
2021/05/28 02:42:18;;;;;;;25.00;13.60;;;8.70;80.40;;;;;;5031944;28;20403;-79
2021/05/28 02:44:44;;;;;;;22.42;13.98;;;8.80;80.00;;;;;;5035401;28;20388;-80
2021/05/28 02:47:09;;;;;;;26.92;13.40;;;8.80;79.70;;;;;;5035846;28;20408;-77
2021/05/28 02:49:36;;;;;;;28.67;14.80;;;8.70;78.60;;;;;;5037123;28;20392;-77
2021/05/28 02:52:05;;;;;;;27.25;13.77;;;8.50;79.00;;;;;;5036707;28;20396;-77
2021/05/28 02:54:31;;;;;;;26.45;15.75;;;8.40;79.10;;;;;;5035846;28;20448;-77
2021/05/28 02:56:56;;;;;;;28.30;16.90;;;8.00;79.70;;;;;;5019487;28;20412;-78
2021/05/28 02:59:22;;;;;;;25.77;15.97;;;7.90;81.20;;;;;;5034359;28;20399;-78
2021/05/28 03:01:48;;;;;;;26.45;15.63;;;7.70;82.20;;;;;;5033474;28;20389;-77
2021/05/28 03:04:14;;;;;;;27.10;15.63;;;7.60;82.70;;;;;;5014124;28;20381;-78
2021/05/28 03:06:40;;;;;;;31.80;16.00;;;7.70;83.70;;;;;;5035907;28;20414;-81
2021/05/28 03:09:06;;;;;;;29.23;15.50;;;7.60;83.80;;;;;;5015043;28;20401;-81
2021/05/28 03:11:32;;;;;;;28.48;15.93;;;7.50;84.00;;;;;;5025439;28;20474;-82
2021/05/28 03:13:58;;;;;;;29.88;16.23;;;7.70;84.80;;;;;;5026713;28;20391;-79
2021/05/28 03:16:24;;;;;;;30.00;16.35;;;7.60;84.60;;;;;;5050535;28;20401;-78
2021/05/28 03:23:58;;;;;;;26.42;15.00;;;7.40;85.10;;;;;;5035513;28;20432;-76
2021/05/28 03:26:24;;;;;;;30.77;17.27;;;7.30;85.30;;;;;;5035765;28;20429;-77
2021/05/28 03:28:51;;;;;;;31.10;16.30;;;7.20;85.50;;;;;;5019070;28;20594;-79
2021/05/28 03:31:17;;;;;;;25.57;15.10;;;7.30;85.90;;;;;;5019011;28;20425;-77
2021/05/28 03:33:43;;;;;;;29.77;16.27;;;7.30;86.10;;;;;;5034693;28;20401;-77
2021/05/28 03:36:09;;;;;;;29.00;16.70;;;7.20;86.10;;;;;;5018089;28;20416;-80
2021/05/28 03:38:35;;;;;;;28.50;16.30;;;7.20;86.40;;;;;;5035967;28;20384;-79
2021/05/28 03:41:01;;;;;;;32.27;17.30;;;7.20;86.50;;;;;;5017282;28;20412;-80
2021/05/28 03:43:27;;;;;;;36.70;18.20;;;7.30;86.80;;;;;;5043799;28;20438;-82
2021/05/28 03:45:52;;;;;;;30.70;17.77;;;7.30;87.00;;;;;;5046027;28;20391;-81
2021/05/28 03:48:18;;;;;;;33.30;18.10;;;7.30;87.30;;;;;;5033489;28;20404;-79
2021/05/28 03:50:44;;;;;;;34.33;17.08;;;7.30;87.40;;;;;;5035688;28;20452;-79
2021/05/28 03:53:10;;;;;;;30.00;16.10;;;7.40;87.70;;;;;;5035793;28;20389;-77
2021/05/28 03:55:36;;;;;;;229.87;127.43;;;7.40;87.80;;;;;;5035354;28;20468;-77
2021/05/28 03:58:02;;;;;;;147.02;76.28;;;7.60;88.10;;;;;;5035156;28;20372;-79
2021/05/28 04:00:28;;;;;;;79.95;47.58;;;7.90;88.60;;;;;;5034635;28;20381;-78
2021/05/28 04:02:54;;;;;;;60.70;31.40;;;8.20;88.70;;;;;;5035735;28;20385;-79
2021/05/28 04:05:20;;;;;;;77.30;43.67;;;8.50;88.20;;;;;;5017742;28;20428;-77
2021/05/28 04:07:46;;;;;;;78.30;46.05;;;8.60;87.30;;;;;;5017444;28;20389;-78
2021/05/28 04:10:12;;;;;;;43.53;25.38;;;8.80;86.90;;;;;;5018422;28;20416;-79
2021/05/28 04:12:38;;;;;;;67.93;35.97;;;9.00;86.00;;;;;;5016970;28;20421;-76
2021/05/28 04:15:05;;;;;;;66.47;36.50;;;9.10;85.40;;;;;;5035256;28;20418;-79
2021/05/28 04:17:31;;;;;;;51.70;29.55;;;9.30;85.90;;;;;;5034952;28;20415;-77
2021/05/28 04:19:56;;;;;;;53.33;30.65;;;9.30;85.70;;;;;;5031934;28;20886;-79
2021/05/28 04:22:22;;;;;;;48.72;27.08;;;9.60;85.20;;;;;;5028216;28;20399;-80
2021/05/28 04:24:47;;;;;;;66.57;41.00;;;9.70;83.20;;;;;;5008704;28;20421;-80
2021/05/28 04:27:13;;;;;;;83.93;50.53;;;9.80;81.40;;;;;;5025004;28;20386;-81
2021/05/28 04:29:39;;;;;;;40.72;25.30;;;10.00;79.00;;;;;;5038636;28;20844;-81
2021/05/28 04:32:05;;;;;;;44.95;28.02;;;10.20;76.20;;;;;;5046826;28;20413;-80
2021/05/28 04:34:30;;;;;;;26.52;15.30;;;10.20;73.50;;;;;;5034210;28;20415;-82
2021/05/28 04:36:56;;;;;;;24.77;15.60;;;10.20;75.20;;;;;;5011076;28;20382;-79
2021/05/28 04:39:21;;;;;;;37.30;20.70;;;10.20;74.50;;;;;;4995214;28;20484;-80
2021/05/28 04:41:47;;;;;;;45.60;24.70;;;10.30;75.00;;;;;;5022132;28;20396;-79
2021/05/28 04:44:13;;;;;;;51.28;25.40;;;10.50;71.60;;;;;;5031634;28;20400;-81
2021/05/28 04:46:39;;;;;;;60.35;27.15;;;10.80;70.10;;;;;;5007963;28;20400;-75
2021/05/28 04:49:05;;;;;;;56.70;26.88;;;10.70;70.40;;;;;;5018168;28;20407;-77
2021/05/28 04:51:30;;;;;;;56.15;28.33;;;10.70;72.20;;;;;;5015560;28;20765;-76
2021/05/28 04:53:56;;;;;;;58.20;29.05;;;10.90;70.20;;;;;;5001653;28;20411;-77
2021/05/28 04:56:22;;;;;;;56.22;27.00;;;11.00;67.50;;;;;;5017526;28;20468;-76
2021/05/28 04:58:48;;;;;;;61.53;30.63;;;11.10;67.10;;;;;;5020677;28;20431;-77
2021/05/28 05:01:14;;;;;;;69.10;30.27;;;11.20;64.90;;;;;;5022685;28;20446;-77
2021/05/28 05:03:39;;;;;;;68.53;31.40;;;10.90;67.80;;;;;;5028299;28;20388;-77
2021/05/28 05:06:05;;;;;;;57.43;29.17;;;11.00;68.50;;;;;;5024595;28;20388;-76
2021/05/28 05:08:31;;;;;;;67.17;31.10;;;11.00;67.80;;;;;;5025565;28;20443;-78
2021/05/28 05:10:57;;;;;;;71.73;31.70;;;11.00;68.50;;;;;;5026527;28;20440;-79
2021/05/28 05:13:22;;;;;;;62.78;30.17;;;11.00;69.50;;;;;;5022128;28;20422;-80
2021/05/28 05:15:48;;;;;;;71.30;30.90;;;11.10;69.80;;;;;;5025872;28;20452;-79
2021/05/28 05:18:14;;;;;;;64.22;29.92;;;11.40;67.40;;;;;;5024913;28;20389;-78
2021/05/28 05:20:39;;;;;;;64.88;31.08;;;11.40;66.10;;;;;;5023330;28;20405;-77
2021/05/28 05:23:05;;;;;;;73.13;32.27;;;11.70;63.70;;;;;;5020175;28;20785;-78
2021/05/28 05:25:32;;;;;;;61.00;30.63;;;12.00;57.70;;;;;;5024754;28;20407;-78
2021/05/28 05:27:58;;;;;;;66.25;31.48;;;12.10;57.60;;;;;;5046335;28;20890;-78
2021/05/28 05:30:23;;;;;;;60.50;30.83;;;12.10;56.70;;;;;;5039634;28;20401;-76
2021/05/28 05:32:49;;;;;;;59.45;31.98;;;12.10;56.50;;;;;;5038844;28;20414;-78
2021/05/28 05:35:15;;;;;;;65.25;31.60;;;12.20;56.80;;;;;;5023959;28;20399;-78
2021/05/28 05:37:40;;;;;;;60.78;31.33;;;12.10;58.70;;;;;;5030349;28;20391;-78
2021/05/28 05:40:07;;;;;;;65.25;33.00;;;12.30;56.70;;;;;;5023547;28;20418;-77
2021/05/28 05:42:37;;;;;;;65.55;31.63;;;12.20;56.50;;;;;;5029838;28;20409;-78
2021/05/28 05:45:07;;;;;;;57.97;30.88;;;12.40;53.60;;;;;;5026407;28;20436;-79
2021/05/28 05:47:33;;;;;;;103.90;56.67;;;12.40;53.00;;;;;;4987954;28;20383;-78
2021/05/28 05:49:59;;;;;;;75.80;41.78;;;12.30;54.60;;;;;;4980566;28;20394;-77
2021/05/28 05:52:25;;;;;;;60.78;34.72;;;12.30;54.60;;;;;;5018009;28;20489;-79
2021/05/28 05:54:51;;;;;;;57.47;30.43;;;12.40;54.20;;;;;;5042750;28;20387;-78
2021/05/28 05:57:17;;;;;;;63.07;31.30;;;12.40;52.60;;;;;;5011688;28;20431;-76
2021/05/28 05:59:42;;;;;;;61.37;31.30;;;12.20;54.00;;;;;;5005833;28;20403;-78
2021/05/28 06:02:08;;;;;;;63.20;31.67;;;12.10;54.40;;;;;;5006803;28;20428;-77
2021/05/28 06:04:33;;;;;;;62.67;31.97;;;12.00;55.40;;;;;;5027165;28;20405;-77
2021/05/28 06:06:59;;;;;;;54.47;29.63;;;12.00;56.70;;;;;;5013235;28;20455;-78
2021/05/28 06:09:25;;;;;;;55.07;28.30;;;12.00;56.90;;;;;;5028288;28;20416;-77
2021/05/28 06:11:51;;;;;;;52.23;27.90;;;12.10;56.00;;;;;;5009896;28;20408;-78
2021/05/28 06:14:16;;;;;;;63.47;28.50;;;12.00;55.60;;;;;;5030400;28;20708;-76
2021/05/28 06:16:42;;;;;;;63.90;30.00;;;12.00;56.00;;;;;;5033190;28;20380;-76
2021/05/28 06:19:07;;;;;;;54.97;29.97;;;12.00;56.70;;;;;;5004916;28;20397;-76
2021/05/28 06:21:33;;;;;;;51.23;29.33;;;12.00;57.30;;;;;;5024537;28;20423;-77
2021/05/28 06:23:59;;;;;;;59.75;30.50;;;12.00;58.10;;;;;;5007371;28;20492;-76
2021/05/28 06:26:25;;;;;;;54.50;30.97;;;12.20;56.30;;;;;;5027301;28;20420;-77
2021/05/28 06:28:50;;;;;;;57.10;30.70;;;12.30;55.80;;;;;;5031170;28;20391;-77
2021/05/28 06:31:16;;;;;;;53.37;28.27;;;12.40;54.20;;;;;;5018552;28;20410;-77
2021/05/28 06:33:42;;;;;;;49.90;28.93;;;12.30;55.30;;;;;;5037190;28;20453;-77
2021/05/28 06:36:08;;;;;;;47.33;27.03;;;12.20;55.80;;;;;;5026574;28;20388;-76
2021/05/28 06:38:34;;;;;;;44.33;25.30;;;12.30;55.30;;;;;;5007689;28;20454;-77
2021/05/28 06:40:59;;;;;;;46.33;25.15;;;12.60;53.20;;;;;;5025853;28;20477;-76
2021/05/28 06:43:25;;;;;;;49.83;27.50;;;12.70;51.60;;;;;;5025407;28;20449;-77
2021/05/28 06:45:50;;;;;;;44.30;24.03;;;12.50;52.90;;;;;;5044078;28;20399;-77
2021/05/28 06:48:16;;;;;;;47.67;26.30;;;12.40;54.40;;;;;;5036337;28;20430;-76
2021/05/28 06:50:41;;;;;;;43.67;25.00;;;12.70;52.70;;;;;;5020573;28;20403;-80
2021/05/28 06:53:11;;;;;;;42.37;24.73;;;12.90;50.90;;;;;;5015276;28;20433;-76
2021/05/28 06:55:37;;;;;;;46.17;24.25;;;12.80;51.40;;;;;;5034487;28;20399;-75
2021/05/28 06:58:03;;;;;;;41.10;23.23;;;12.90;51.50;;;;;;4999464;28;20403;-74
2021/05/28 07:00:28;;;;;;;47.92;25.45;;;13.20;47.20;;;;;;5009554;28;20418;-74
2021/05/28 07:02:55;;;;;;;48.65;25.27;;;13.20;47.80;;;;;;5020866;28;20753;-75
2021/05/28 07:05:24;;;;;;;42.25;23.23;;;13.10;48.70;;;;;;5018547;28;20863;-76
2021/05/28 07:07:53;;;;;;;31.92;19.45;;;13.10;48.10;;;;;;5013176;28;20400;-75
2021/05/28 07:10:19;;;;;;;40.10;21.52;;;13.20;46.10;;;;;;5028952;28;20457;-76
2021/05/28 07:12:44;;;;;;;41.30;22.43;;;13.30;45.70;;;;;;5011828;28;20430;-75
2021/05/28 07:15:10;;;;;;;39.87;21.80;;;13.30;45.80;;;;;;5016928;28;20801;-76
2021/05/28 07:17:36;;;;;;;38.22;20.98;;;13.60;44.00;;;;;;5012274;28;20742;-76
2021/05/28 07:20:04;;;;;;;40.53;20.63;;;13.70;42.90;;;;;;5019947;28;20487;-76
2021/05/28 07:22:29;;;;;;;30.25;18.48;;;13.80;42.50;;;;;;5012316;28;20401;-75
2021/05/28 07:24:55;;;;;;;27.65;17.15;;;14.10;40.90;;;;;;5014116;28;20511;-76
2021/05/28 07:27:21;;;;;;;44.20;23.40;;;14.40;39.30;;;;;;5016206;28;20476;-75
2021/05/28 07:29:47;;;;;;;39.55;21.65;;;14.40;42.20;;;;;;5024369;28;20436;-76
2021/05/28 07:32:12;;;;;;;53.38;23.70;;;14.10;43.80;;;;;;5020891;28;20408;-76
2021/05/28 07:34:39;;;;;;;43.72;24.08;;;14.00;47.20;;;;;;5001094;28;20415;-82
2021/05/28 07:37:05;;;;;;;45.63;23.65;;;13.60;49.00;;;;;;5023780;28;20874;-76
2021/05/28 07:39:31;;;;;;;46.55;22.98;;;13.40;50.30;;;;;;5017055;28;20416;-76
2021/05/28 07:41:58;;;;;;;38.50;22.48;;;13.20;51.20;;;;;;5023937;28;20430;-77
2021/05/28 07:44:24;;;;;;;45.53;23.60;;;13.00;51.70;;;;;;5029763;28;20472;-76
2021/05/28 07:46:50;;;;;;;51.50;23.05;;;12.90;56.40;;;;;;5016735;22;20446;-70
2021/05/28 07:49:16;;;;;;;44.90;24.05;;;13.00;53.50;;;;;;4998067;28;20394;-69
2021/05/28 07:51:42;;;;;;;44.65;22.80;;;13.20;53.10;;;;;;4985473;28;20410;-69
2021/05/28 07:54:08;;;;;;;40.42;22.20;;;13.30;52.30;;;;;;4991098;28;20832;-68
2021/05/28 07:56:35;;;;;;;44.33;22.17;;;13.40;50.30;;;;;;5005050;28;20396;-68
2021/05/28 07:59:01;;;;;;;42.20;21.27;;;13.60;50.60;;;;;;5010074;28;20785;-68
2021/05/28 08:01:28;;;;;;;38.60;21.33;;;13.80;48.70;;;;;;5007997;28;20397;-69
2021/05/28 08:03:54;;;;;;;43.00;22.47;;;13.70;48.40;;;;;;5008376;28;20490;-68
2021/05/28 08:06:20;;;;;;;45.67;21.63;;;13.70;48.30;;;;;;5009896;28;20404;-69
2021/05/28 08:08:46;;;;;;;41.73;22.10;;;13.60;49.00;;;;;;5009608;28;20866;-70
2021/05/28 08:11:11;;;;;;;41.07;21.17;;;13.70;50.50;;;;;;5011238;28;20412;-70
2021/05/28 08:13:37;;;;;;;40.53;22.67;;;13.80;48.80;;;;;;5014667;28;20431;-70
2021/05/28 08:16:03;;;;;;;40.90;20.40;;;13.90;48.80;;;;;;5015297;28;20933;-70
2021/05/28 08:18:29;;;;;;;39.75;21.83;;;13.60;47.90;;;;;;5014426;28;20388;-71
2021/05/28 08:20:56;;;;;;;39.65;20.98;;;13.60;50.20;;;;;;5014717;28;20391;-70
2021/05/28 08:23:21;;;;;;;30.48;19.42;;;13.60;49.70;;;;;;5013895;28;20388;-71
2021/05/28 08:25:49;;;;;;;37.72;21.25;;;13.80;47.70;;;;;;4996421;28;20492;-71
2021/05/28 08:28:16;;;;;;;38.92;19.80;;;14.00;48.60;;;;;;4996747;28;20483;-70
2021/05/28 08:30:41;;;;;;;38.30;20.35;;;14.20;45.10;;;;;;5014500;28;20791;-70
2021/05/28 08:33:08;;;;;;;34.28;18.90;;;14.30;44.60;;;;;;5014932;28;20385;-70
2021/05/28 08:35:34;;;;;;;34.88;19.10;;;14.30;43.80;;;;;;5014166;28;20407;-70
2021/05/28 08:37:59;;;;;;;36.80;19.63;;;14.20;43.50;;;;;;5009195;28;20403;-71
2021/05/28 08:40:29;;;;;;;36.80;19.05;;;14.00;45.10;;;;;;5012005;28;20807;-68
2021/05/28 08:42:59;;;;;;;33.67;18.23;;;13.90;45.60;;;;;;5010991;28;20444;-68
2021/05/28 08:45:25;;;;;;;33.40;18.67;;;14.10;45.40;;;;;;5013146;28;20541;-67
2021/05/28 08:47:51;;;;;;;35.50;19.13;;;14.10;45.80;;;;;;5013384;28;20870;-68
2021/05/28 08:50:16;;;;;;;27.17;17.03;;;14.20;45.00;;;;;;5013467;28;20472;-68
2021/05/28 08:52:42;;;;;;;31.70;17.10;;;14.40;43.60;;;;;;5013626;28;20746;-68
2021/05/28 08:55:08;;;;;;;29.07;17.07;;;14.30;43.10;;;;;;5012702;28;20483;-68
2021/05/28 08:57:33;;;;;;;29.25;15.55;;;14.30;45.10;;;;;;5013918;28;20396;-69
2021/05/28 08:59:59;;;;;;;29.83;15.68;;;14.30;44.50;;;;;;5012606;28;20407;-69
2021/05/28 09:02:28;;;;;;;31.33;16.70;;;14.20;44.30;;;;;;5013088;28;20395;-67
2021/05/28 09:05:07;;;;;;;26.15;16.83;;;14.10;45.50;;;;;;5013765;28;20389;-69
2021/05/28 09:07:32;;;;;;;30.95;16.45;;;14.10;46.30;;;;;;5013183;28;20403;-67
2021/05/28 09:09:58;;;;;;;33.43;17.07;;;14.20;46.70;;;;;;5012970;28;20900;-71
2021/05/28 09:12:28;;;;;;;31.83;17.23;;;14.10;46.00;;;;;;5013452;28;20413;-72
2021/05/28 09:14:54;;;;;;;33.70;17.95;;;14.00;45.80;;;;;;5013478;28;20890;-71
2021/05/28 09:17:19;;;;;;;29.20;16.40;;;14.00;45.70;;;;;;5013508;28;20439;-69
2021/05/28 09:19:54;;;;;;;30.63;17.70;;;14.10;44.60;;;;;;5013492;28;20393;-69
2021/05/28 09:22:20;;;;;;;27.17;15.48;;;14.20;43.70;;;;;;5013327;28;20397;-68
2021/05/28 09:24:46;;;;;;;29.08;15.27;;;14.30;44.80;;;;;;4994975;28;20492;-69
2021/05/28 09:27:23;;;;;;;27.98;14.25;;;14.40;42.90;;;;;;5013290;28;20814;-68
2021/05/28 09:30:12;;;;;;;21.45;13.95;;;14.50;42.30;;;;;;5011052;28;20397;-71
2021/05/28 09:32:40;;;;;;;24.85;14.45;;;14.70;42.40;;;;;;5010401;28;20412;-67
2021/05/28 09:35:10;;;;;;;22.45;14.05;;;14.90;41.40;;;;;;5014394;28;20392;-68
2021/05/28 09:37:41;;;;;;;23.20;14.37;;;15.10;40.00;;;;;;5007013;28;20882;-70
2021/05/28 09:40:19;;;;;;;22.10;13.20;;;15.20;38.60;;;;;;5013695;28;20491;-69
2021/05/28 09:42:58;;;;;;;26.77;14.15;;;15.40;36.80;;;;;;4994453;28;20399;-68
2021/05/28 09:45:38;;;;;;;27.15;13.57;;;15.30;37.00;;;;;;4993453;28;20398;-67
2021/05/28 09:48:21;;;;;;;26.67;13.27;;;15.40;37.10;;;;;;4993295;28;20382;-68
2021/05/28 09:50:49;;;;;;;21.75;12.95;;;15.50;36.70;;;;;;4993318;28;20414;-67
2021/05/28 09:53:41;;;;;;;22.35;13.18;;;15.70;35.40;;;;;;4997811;28;20392;-67
2021/05/28 09:56:34;;;;;;;18.25;12.15;;;16.00;34.40;;;;;;5012913;28;20381;-67
2021/05/28 09:59:06;;;;;;;24.93;13.53;;;16.30;33.80;;;;;;5013008;28;20917;-69
2021/05/28 10:01:37;;;;;;;25.13;13.75;;;16.40;32.60;;;;;;5013060;28;20384;-67
2021/05/28 10:04:10;;;;;;;20.98;13.40;;;16.20;32.50;;;;;;5012785;28;20558;-68
2021/05/28 10:06:40;;;;;;;24.65;13.40;;;16.10;31.70;;;;;;5012733;28;20396;-69
2021/05/28 10:09:10;;;;;;;20.55;11.20;;;15.80;33.00;;;;;;5012202;28;20440;-69
2021/05/28 10:11:38;;;;;;;25.40;12.10;;;15.60;33.00;;;;;;5012058;28;20413;-68
2021/05/28 10:14:07;;;;;;;20.40;13.00;;;15.50;34.50;;;;;;5011492;28;20862;-69
2021/05/28 10:16:33;;;;;;;18.40;10.52;;;16.00;33.70;;;;;;5012370;28;20404;-69
2021/05/28 10:18:59;;;;;;;16.80;10.60;;;16.40;31.00;;;;;;5012886;28;20397;-68
2021/05/28 10:21:26;;;;;;;15.18;9.73;;;16.80;29.10;;;;;;5012542;28;20393;-69
2021/05/28 10:23:52;;;;;;;24.67;10.50;;;17.10;27.80;;;;;;5012323;28;20385;-69
2021/05/28 10:26:25;;;;;;;15.63;9.73;;;16.70;26.50;;;;;;5011902;28;20488;-69
2021/05/28 10:28:51;;;;;;;12.65;9.48;;;16.30;28.30;;;;;;5012349;28;20384;-68
2021/05/28 10:31:17;;;;;;;14.60;10.20;;;16.20;28.10;;;;;;5012285;28;20409;-68
2021/05/28 10:33:53;;;;;;;19.27;10.10;;;16.30;27.60;;;;;;5011198;28;20381;-67
2021/05/28 10:36:42;;;;;;;17.67;10.30;;;16.50;28.50;;;;;;5011943;28;20424;-68
2021/05/28 10:39:12;;;;;;;12.77;8.80;;;17.20;27.50;;;;;;5012235;28;20963;-69
2021/05/28 10:41:45;;;;;;;14.73;8.75;;;17.80;23.90;;;;;;5011363;28;20433;-70
2021/05/28 10:44:13;;;;;;;10.38;8.10;;;18.30;22.70;;;;;;5012183;28;20447;-67
2021/05/28 10:47:11;;;;;;;15.70;9.00;;;18.40;21.40;;;;;;5011229;28;20488;-68
2021/05/28 10:49:47;;;;;;;20.48;8.50;;;17.80;21.30;;;;;;4985574;28;20497;-69
2021/05/28 10:52:14;;;;;;;11.52;7.97;;;17.80;22.20;;;;;;4992203;28;20477;-69
2021/05/28 10:54:54;;;;;;;15.20;7.70;;;17.80;20.90;;;;;;4993348;28;20818;-68
2021/05/28 10:57:29;;;;;;;12.82;7.80;;;17.60;22.20;;;;;;5011701;28;20396;-68
2021/05/28 10:59:57;;;;;;;10.98;7.00;;;17.50;20.70;;;;;;5011514;28;20443;-69
2021/05/28 11:02:46;;;;;;;13.10;7.53;;;17.50;21.90;;;;;;5011552;28;20394;-68
2021/05/28 11:05:13;;;;;;;10.93;7.03;;;17.90;20.00;;;;;;5011271;28;20413;-68
2021/05/28 11:07:46;;;;;;;13.45;7.55;;;18.30;19.10;;;;;;5010987;28;20389;-69
2021/05/28 11:10:20;;;;;;;12.80;6.35;;;18.80;18.00;;;;;;5011081;28;20403;-69
2021/05/28 11:12:46;;;;;;;10.00;6.65;;;18.50;17.80;;;;;;5011127;28;21001;-69
2021/05/28 11:15:15;;;;;;;8.27;6.22;;;18.80;17.60;;;;;;5011304;28;20472;-68
2021/05/28 11:17:51;;;;;;;10.93;5.95;;;18.80;17.30;;;;;;5010717;28;20385;-68
2021/05/28 11:20:24;;;;;;;8.32;5.90;;;18.70;16.90;;;;;;5011123;28;20804;-69
2021/05/28 11:22:49;;;;;;;11.15;6.38;;;18.80;16.70;;;;;;5010813;28;20392;-68
2021/05/28 11:25:17;;;;;;;9.25;6.90;;;19.10;16.40;;;;;;5011292;28;20397;-68
2021/05/28 11:27:51;;;;;;;8.40;5.72;;;19.10;16.00;;;;;;5011026;28;20416;-68
2021/05/28 11:30:18;;;;;;;7.72;5.60;;;19.20;15.40;;;;;;5010445;28;20995;-68
2021/05/28 11:32:44;;;;;;;7.05;5.07;;;19.30;14.50;;;;;;5010180;28;20412;-69
2021/05/28 11:35:21;;;;;;;8.10;5.50;;;19.40;15.50;;;;;;5011066;28;20439;-71
2021/05/28 11:38:05;;;;;;;7.82;5.72;;;20.00;14.60;;;;;;5010458;28;20411;-70
2021/05/28 11:40:38;;;;;;;8.15;5.20;;;20.40;13.50;;;;;;5010797;28;20392;-71
2021/05/28 11:43:05;;;;;;;8.38;5.22;;;20.10;13.70;;;;;;5010536;28;20388;-70
2021/05/28 11:45:31;;;;;;;10.05;5.57;;;19.80;13.90;;;;;;5009819;28;20865;-70
2021/05/28 11:47:57;;;;;;;7.60;6.00;;;19.60;14.40;;;;;;4992365;28;20424;-71
2021/05/28 11:50:23;;;;;;;9.25;6.28;;;19.40;13.10;;;;;;5011147;28;20873;-71
2021/05/28 11:52:59;;;;;;;9.63;6.05;;;18.90;15.10;;;;;;5010376;28;20813;-70
2021/05/28 11:55:26;;;;;;;7.75;6.15;;;18.90;15.30;;;;;;5010861;28;20925;-72
2021/05/28 11:58:01;;;;;;;10.30;6.00;;;19.00;14.30;;;;;;4990830;28;20391;-71
2021/05/28 12:00:27;;;;;;;10.80;6.43;;;18.40;15.20;;;;;;4990747;28;20852;-68
2021/05/28 12:02:57;;;;;;;9.95;6.70;;;18.40;16.60;;;;;;5008753;28;20488;-70
2021/05/28 12:05:37;;;;;;;11.43;6.03;;;18.80;17.50;;;;;;5010509;28;20385;-69
2021/05/28 12:08:14;;;;;;;9.03;6.77;;;19.30;14.30;;;;;;5010491;28;20385;-69
2021/05/28 12:10:48;;;;;;;12.32;6.70;;;19.60;14.40;;;;;;5010635;28;20452;-68
2021/05/28 12:13:19;;;;;;;11.07;6.72;;;20.00;14.90;;;;;;5011223;28;20383;-69
2021/05/28 12:15:50;;;;;;;10.82;7.20;;;20.00;12.70;;;;;;5012015;28;20400;-70
2021/05/28 12:18:33;;;;;;;15.73;8.18;;;20.00;12.70;;;;;;5011690;28;20381;-68
2021/05/28 12:21:01;;;;;;;11.52;7.28;;;20.30;13.00;;;;;;5010452;28;20416;-68
2021/05/28 12:23:29;;;;;;;11.00;6.95;;;20.40;12.90;;;;;;5010143;28;20388;-70
2021/05/28 12:25:57;;;;;;;14.85;9.20;;;20.40;11.20;;;;;;5010423;28;20395;-68
2021/05/28 12:28:25;;;;;;;18.40;8.50;;;20.40;11.40;;;;;;5009919;28;20885;-69
2021/05/28 12:30:59;;;;;;;12.15;8.50;;;20.30;10.80;;;;;;5010138;28;20940;-67
2021/05/28 12:33:29;;;;;;;15.95;8.75;;;20.30;11.60;;;;;;4994596;28;20393;-69
2021/05/28 12:35:56;;;;;;;11.77;7.65;;;20.70;10.60;;;;;;5010123;28;20738;-68
2021/05/28 12:38:24;;;;;;;11.18;6.80;;;21.00;10.60;;;;;;5010260;28;20452;-68